createdAt,value
2023-03-31T00:01:10.021Z,97379.00
2023-03-31T00:03:38.843Z,97373.00
2023-03-31T00:06:11.595Z,97364.00
2023-03-31T00:08:40.350Z,97355.00
2023-03-31T00:11:08.785Z,97364.00
2023-03-31T00:13:37.674Z,97356.00
2023-03-31T00:16:08.274Z,97354.00
2023-03-31T00:18:36.978Z,97344.00
2023-03-31T00:21:24.394Z,97336.00
2023-03-31T00:23:52.616Z,97347.00
2023-03-31T00:26:20.432Z,97339.00
2023-03-31T00:28:48.079Z,97339.00
2023-03-31T00:31:16.233Z,97332.00
2023-03-31T00:33:44.022Z,97341.00
2023-03-31T00:36:13.240Z,97335.00
2023-03-31T00:38:45.829Z,97327.00
2023-03-31T00:41:13.541Z,97322.00
2023-03-31T00:43:42.261Z,97322.00
2023-03-31T00:46:18.993Z,97326.00
2023-03-31T00:48:50.864Z,97322.00
2023-03-31T00:51:22.265Z,97329.00
2023-03-31T00:53:55.391Z,97332.00
2023-03-31T00:56:23.325Z,97317.00
2023-03-31T00:58:51.508Z,97312.00
2023-03-31T01:01:24.737Z,97303.00
2023-03-31T01:03:53.730Z,97296.00
2023-03-31T01:06:23.710Z,97299.00
2023-03-31T01:08:52.946Z,97293.00
2023-03-31T01:11:23.527Z,97289.00
2023-03-31T01:13:56.050Z,97282.00
2023-03-31T01:16:24.648Z,97275.00
2023-03-31T01:18:52.753Z,97269.00
2023-03-31T01:21:48.042Z,97267.00
2023-03-31T01:24:47.550Z,97261.00
2023-03-31T01:27:41.413Z,97261.00
2023-03-31T01:30:44.492Z,97252.00
2023-03-31T01:33:32.827Z,97253.00
2023-03-31T01:36:27.144Z,97262.00
2023-03-31T01:39:26.628Z,97256.00
2023-03-31T01:42:02.777Z,97249.00
2023-03-31T01:44:41.809Z,97233.00
2023-03-31T01:47:18.332Z,97237.00
2023-03-31T01:49:53.026Z,97227.00
2023-03-31T01:52:24.711Z,97214.00
2023-03-31T01:54:59.907Z,97213.00
2023-03-31T01:57:33.791Z,97208.00
2023-03-31T02:00:08.813Z,97208.00
2023-03-31T02:02:39.698Z,97203.00
2023-03-31T02:05:11.312Z,97206.00
2023-03-31T02:07:44.181Z,97204.00
2023-03-31T02:10:13.731Z,97205.00
2023-03-31T02:12:44.410Z,97209.00
2023-03-31T02:15:15.946Z,97194.00
2023-03-31T02:17:45.929Z,97191.00
2023-03-31T02:20:17.627Z,97189.00
2023-03-31T02:22:49.206Z,97191.00
2023-03-31T02:25:20.329Z,97190.00
2023-03-31T02:27:54.359Z,97180.00
2023-03-31T02:30:22.311Z,97183.00
2023-03-31T02:32:50.114Z,97188.00
2023-03-31T02:35:20.157Z,97186.00
2023-03-31T02:37:49.788Z,97179.00
2023-03-31T02:40:20.456Z,97171.00
2023-03-31T02:42:50.476Z,97172.00
2023-03-31T02:45:44.306Z,97160.00
2023-03-31T02:48:17.315Z,97157.00
2023-03-31T02:51:28.912Z,97156.00
2023-03-31T02:54:10.691Z,97140.00
2023-03-31T02:56:50.903Z,97143.00
2023-03-31T02:59:32.081Z,97130.00
2023-03-31T03:02:11.156Z,97132.00
2023-03-31T03:05:00.169Z,97126.00
2023-03-31T03:07:35.570Z,97114.00
2023-03-31T03:10:09.315Z,97117.00
2023-03-31T03:12:46.154Z,97098.00
2023-03-31T03:15:19.975Z,97098.00
2023-03-31T03:17:49.431Z,97089.00
2023-03-31T03:20:17.337Z,97088.00
2023-03-31T03:22:45.013Z,97085.00
2023-03-31T03:25:14.808Z,97079.00
2023-03-31T03:27:42.530Z,97078.00
2023-03-31T03:30:12.606Z,97072.00
2023-03-31T03:32:43.253Z,97072.00
2023-03-31T03:35:11.783Z,97068.00
2023-03-31T03:37:39.598Z,97067.00
2023-03-31T03:40:08.910Z,97060.00
2023-03-31T03:42:38.382Z,97052.00
2023-03-31T03:45:07.091Z,97049.00
2023-03-31T03:47:34.865Z,97053.00
2023-03-31T03:50:05.438Z,97051.00
2023-03-31T03:52:33.130Z,97049.00
2023-03-31T03:55:01.779Z,97042.00
2023-03-31T03:57:29.544Z,97044.00
2023-03-31T03:59:57.401Z,97036.00
2023-03-31T04:02:28.023Z,97039.00
2023-03-31T04:04:55.919Z,97046.00
2023-03-31T04:07:25.058Z,97041.00
2023-03-31T04:09:53.419Z,97033.00
2023-03-31T04:12:21.158Z,97028.00
2023-03-31T04:14:48.889Z,97018.00
2023-03-31T04:17:16.563Z,97013.00
2023-03-31T04:19:44.359Z,97015.00
2023-03-31T04:22:15.396Z,97008.00
2023-03-31T04:24:46.640Z,97004.00
2023-03-31T04:27:17.372Z,96999.00
2023-03-31T04:29:54.737Z,96987.00
2023-03-31T04:32:22.791Z,96985.00
2023-03-31T04:34:51.633Z,96983.00
2023-03-31T04:37:19.345Z,96967.00
2023-03-31T04:39:51.512Z,96961.00
2023-03-31T04:42:19.164Z,96956.00
2023-03-31T04:44:46.885Z,96950.00
2023-03-31T04:47:14.560Z,96941.00
2023-03-31T04:49:42.329Z,96934.00
2023-03-31T04:52:09.978Z,96927.00
2023-03-31T04:54:37.781Z,96916.00
2023-03-31T04:57:06.864Z,96913.00
2023-03-31T04:59:34.603Z,96909.00
2023-03-31T05:02:02.412Z,96910.00
2023-03-31T05:04:30.167Z,96909.00
2023-03-31T05:06:58.004Z,96905.00
2023-03-31T05:09:25.679Z,96899.00
2023-03-31T05:11:53.328Z,96895.00
2023-03-31T05:14:22.332Z,96893.00
2023-03-31T05:16:50.362Z,96897.00
2023-03-31T05:19:18.327Z,96892.00
2023-03-31T05:21:46.636Z,96879.00
2023-03-31T05:24:14.897Z,96872.00
2023-03-31T05:26:47.755Z,96866.00
2023-03-31T05:29:16.570Z,96851.00
2023-03-31T05:31:46.223Z,96844.00
2023-03-31T05:34:14.409Z,96835.00
2023-03-31T05:36:43.295Z,96842.00
2023-03-31T05:39:11.001Z,96826.00
2023-03-31T05:41:38.861Z,96819.00
2023-03-31T05:44:06.642Z,96818.00
2023-03-31T05:46:34.393Z,96822.00
2023-03-31T05:49:03.480Z,96819.00
2023-03-31T05:51:31.254Z,96812.00
2023-03-31T05:53:58.912Z,96805.00
2023-03-31T05:56:27.562Z,96805.00
2023-03-31T05:58:55.259Z,96810.00
2023-03-31T06:01:24.200Z,96799.00
2023-03-31T06:03:52.008Z,96803.00
2023-03-31T06:06:21.429Z,96802.00
2023-03-31T06:08:50.041Z,96802.00
2023-03-31T06:11:20.402Z,96792.00
2023-03-31T06:13:48.998Z,96789.00
2023-03-31T06:16:18.735Z,96794.00
2023-03-31T06:18:46.872Z,96794.00
2023-03-31T06:21:16.344Z,96791.00
2023-03-31T06:23:46.144Z,96793.00
2023-03-31T06:26:16.187Z,96798.00
2023-03-31T06:28:44.211Z,96797.00
2023-03-31T06:31:13.450Z,96802.00
2023-03-31T06:33:41.893Z,96799.00
2023-03-31T06:36:10.163Z,96804.00
2023-03-31T06:38:38.745Z,96810.00
2023-03-31T06:41:09.382Z,96820.00
2023-03-31T06:43:37.172Z,96811.00
2023-03-31T06:46:05.920Z,96828.00
2023-03-31T06:48:33.893Z,96826.00
2023-03-31T06:51:03.299Z,96822.00
2023-03-31T06:53:31.226Z,96843.00
2023-03-31T06:55:58.927Z,96831.00
2023-03-31T06:58:30.618Z,96835.00
2023-03-31T07:00:59.624Z,96834.00
2023-03-31T07:03:29.593Z,96838.00
2023-03-31T07:05:57.622Z,96824.00
2023-03-31T07:08:26.035Z,96826.00
2023-03-31T07:10:57.828Z,96814.00
2023-03-31T07:13:26.272Z,96815.00
2023-03-31T07:15:55.520Z,96801.00
2023-03-31T07:18:25.937Z,96797.00
2023-03-31T07:20:53.733Z,96789.00
2023-03-31T07:23:21.802Z,96784.00
2023-03-31T07:25:49.961Z,96779.00
2023-03-31T07:28:17.882Z,96767.00
2023-03-31T07:30:45.577Z,96759.00
2023-03-31T07:33:14.713Z,96764.00
2023-03-31T07:35:42.945Z,96761.00
2023-03-31T07:38:11.034Z,96751.00
2023-03-31T07:40:40.089Z,96750.00
2023-03-31T07:43:08.069Z,96735.00
2023-03-31T07:45:36.846Z,96725.00
2023-03-31T07:48:04.848Z,96724.00
2023-03-31T07:50:33.817Z,96717.00
2023-03-31T07:53:01.414Z,96720.00
2023-03-31T07:55:29.076Z,96706.00
2023-03-31T07:57:56.775Z,96714.00
2023-03-31T08:00:24.812Z,96711.00
2023-03-31T08:02:52.632Z,96717.00
2023-03-31T08:05:21.884Z,96723.00
2023-03-31T08:07:51.902Z,96727.00
2023-03-31T08:10:22.104Z,96724.00
2023-03-31T08:12:49.913Z,96726.00
2023-03-31T08:15:18.679Z,96730.00
2023-03-31T08:17:46.517Z,96734.00
2023-03-31T08:20:14.549Z,96729.00
2023-03-31T08:22:42.218Z,96733.00
2023-03-31T08:25:12.120Z,96733.00
2023-03-31T08:27:41.709Z,96730.00
2023-03-31T08:30:11.902Z,96723.00
2023-03-31T08:32:39.554Z,96716.00
2023-03-31T08:35:08.651Z,96714.00
2023-03-31T08:37:36.455Z,96701.00
2023-03-31T08:40:05.301Z,96698.00
2023-03-31T08:42:40.011Z,96648.00
2023-03-31T08:45:14.991Z,96592.00
2023-03-31T08:47:44.849Z,96463.00
2023-03-31T08:50:16.480Z,96463.00
2023-03-31T08:52:46.726Z,96514.00
2023-03-31T08:55:21.436Z,96531.00
2023-03-31T08:57:58.530Z,96538.00
2023-03-31T09:00:26.985Z,96556.00
2023-03-31T09:03:02.041Z,96562.00
2023-03-31T09:05:57.211Z,96588.00
2023-03-31T09:08:35.190Z,96598.00
2023-03-31T09:11:11.447Z,96612.00
2023-03-31T09:14:07.775Z,96602.00
2023-03-31T09:16:40.661Z,96584.00
2023-03-31T09:19:14.748Z,96580.00
2023-03-31T09:21:45.826Z,96581.00
2023-03-31T09:24:16.841Z,96569.00
2023-03-31T09:26:48.784Z,96568.00
2023-03-31T09:29:24.394Z,96561.00
2023-03-31T09:31:52.205Z,96565.00
2023-03-31T09:34:28.199Z,96560.00
2023-03-31T09:36:56.311Z,96563.00
2023-03-31T09:39:24.064Z,96570.00
2023-03-31T09:41:54.119Z,96568.00
2023-03-31T09:44:29.288Z,96561.00
2023-03-31T09:46:57.379Z,96560.00
2023-03-31T09:49:28.152Z,96558.00
2023-03-31T09:52:03.383Z,96553.00
2023-03-31T09:54:37.463Z,96549.00
2023-03-31T09:57:15.378Z,96535.00
2023-03-31T09:59:46.441Z,96536.00
2023-03-31T10:02:36.427Z,96528.00
2023-03-31T10:05:05.374Z,96532.00
2023-03-31T10:07:34.082Z,96534.00
2023-03-31T10:10:01.832Z,96524.00
2023-03-31T10:12:31.038Z,96542.00
2023-03-31T10:15:18.335Z,96532.00
2023-03-31T10:17:54.421Z,96538.00
2023-03-31T10:20:34.182Z,96539.00
2023-03-31T10:23:06.601Z,96545.00
2023-03-31T10:25:35.720Z,96546.00
2023-03-31T10:28:04.354Z,96546.00
2023-03-31T10:30:38.193Z,96538.00
2023-03-31T10:33:21.958Z,96526.00
2023-03-31T10:35:55.663Z,96531.00
2023-03-31T10:38:27.529Z,96523.00
2023-03-31T10:40:57.290Z,96521.00
2023-03-31T10:43:30.079Z,96515.00
2023-03-31T10:46:01.231Z,96508.00
2023-03-31T10:48:31.112Z,96513.00
2023-03-31T10:51:02.247Z,96499.00
2023-03-31T10:53:30.508Z,96519.00
2023-03-31T10:56:07.859Z,96505.00
2023-03-31T10:59:02.083Z,96494.00
2023-03-31T11:01:45.648Z,96491.00
2023-03-31T11:04:37.703Z,96487.00
2023-03-31T11:07:10.973Z,96495.00
2023-03-31T11:09:51.813Z,96479.00
2023-03-31T11:12:25.733Z,96472.00
2023-03-31T11:15:05.735Z,96465.00
2023-03-31T11:17:45.237Z,96467.00
2023-03-31T11:20:20.022Z,96476.00
2023-03-31T11:22:56.006Z,96472.00
2023-03-31T11:25:32.456Z,96467.00
2023-03-31T11:28:39.012Z,96473.00
2023-03-31T11:31:23.177Z,96467.00
2023-03-31T11:34:02.976Z,96451.00
2023-03-31T11:36:43.893Z,96424.00
2023-03-31T11:39:33.743Z,96435.00
2023-03-31T11:42:06.554Z,96428.00
2023-03-31T11:44:41.524Z,96434.00
2023-03-31T11:47:12.046Z,96435.00
2023-03-31T11:49:43.322Z,96426.00
2023-03-31T11:52:16.614Z,96443.00
2023-03-31T11:54:51.533Z,96464.00
2023-03-31T11:57:23.251Z,96451.00
2023-03-31T11:59:57.554Z,96449.00
2023-03-31T12:02:33.310Z,96445.00
2023-03-31T12:05:04.564Z,96450.00
2023-03-31T12:07:36.003Z,96441.00
2023-03-31T12:10:12.656Z,96437.00
2023-03-31T12:12:45.586Z,96429.00
2023-03-31T12:15:20.471Z,96420.00
2023-03-31T12:17:53.812Z,96417.00
2023-03-31T12:20:31.458Z,96434.00
2023-03-31T12:23:01.122Z,96426.00
2023-03-31T12:25:42.220Z,96429.00
2023-03-31T12:28:11.437Z,96425.00
2023-03-31T12:30:43.112Z,96416.00
2023-03-31T12:33:17.040Z,96418.00
2023-03-31T12:35:58.743Z,96423.00
2023-03-31T12:38:47.196Z,96427.00
2023-03-31T12:41:20.967Z,96426.00
2023-03-31T12:44:00.688Z,96426.00
2023-03-31T12:46:42.139Z,96434.00
2023-03-31T12:49:21.412Z,96416.00
2023-03-31T12:52:00.541Z,96432.00
2023-03-31T12:54:57.108Z,96406.00
2023-03-31T12:57:26.232Z,96396.00
2023-03-31T13:00:23.397Z,96382.00
2023-03-31T13:02:51.957Z,96491.00
2023-03-31T13:05:48.630Z,96575.00
2023-03-31T13:08:49.796Z,96551.00
2023-03-31T13:11:19.361Z,96520.00
2023-03-31T13:14:00.705Z,96514.00
2023-03-31T13:16:29.032Z,96512.00
2023-03-31T13:18:57.416Z,96502.00
2023-03-31T13:21:25.880Z,96486.00
2023-03-31T13:23:54.300Z,96479.00
2023-03-31T13:26:42.239Z,96474.00
2023-03-31T13:29:22.760Z,96460.00
2023-03-31T13:32:20.370Z,96451.00
2023-03-31T13:34:53.703Z,96451.00
2023-03-31T13:37:35.005Z,96440.00
2023-03-31T13:40:19.639Z,96440.00
2023-03-31T13:43:06.243Z,96446.00
2023-03-31T13:46:02.580Z,96449.00
2023-03-31T13:48:43.863Z,96438.00
2023-03-31T13:51:32.445Z,96435.00
2023-03-31T13:54:44.332Z,96430.00
2023-03-31T13:57:48.474Z,96424.00
2023-03-31T14:00:31.031Z,96431.00
2023-03-31T14:03:14.913Z,96434.00
2023-03-31T14:05:46.266Z,96442.00
2023-03-31T14:08:21.279Z,96429.00
2023-03-31T14:10:48.978Z,96414.00
2023-03-31T14:13:18.998Z,96419.00
2023-03-31T14:15:51.554Z,96424.00
2023-03-31T14:18:25.701Z,96421.00
2023-03-31T14:21:22.449Z,96423.00
2023-03-31T14:24:01.674Z,96408.00
2023-03-31T14:26:46.791Z,96411.00
2023-03-31T14:29:21.323Z,96416.00
2023-03-31T14:31:58.277Z,96412.00
2023-03-31T14:34:45.981Z,96414.00
2023-03-31T14:37:17.602Z,96409.00
2023-03-31T14:39:48.238Z,96394.00
2023-03-31T14:42:18.166Z,96402.00
2023-03-31T14:44:48.747Z,96412.00
2023-03-31T14:47:22.370Z,96410.00
2023-03-31T14:50:00.677Z,96399.00
2023-03-31T14:52:31.065Z,96406.00
2023-03-31T14:55:00.556Z,96395.00
2023-03-31T14:57:32.927Z,96395.00
2023-03-31T15:00:05.017Z,96394.00
2023-03-31T15:02:35.998Z,96391.00
2023-03-31T15:05:07.563Z,96392.00
2023-03-31T15:07:36.199Z,96384.00
2023-03-31T15:10:05.418Z,96375.00
2023-03-31T15:12:33.310Z,96382.00
2023-03-31T15:15:05.299Z,96366.00
2023-03-31T15:17:40.512Z,96374.00
2023-03-31T15:20:28.382Z,96377.00
2023-03-31T15:22:57.767Z,96373.00
2023-03-31T15:25:33.351Z,96379.00
2023-03-31T15:28:06.593Z,96384.00
2023-03-31T15:30:36.250Z,96381.00
2023-03-31T15:35:39.254Z,96386.00
2023-03-31T15:38:07.527Z,96379.00
2023-03-31T15:40:39.705Z,96379.00
2023-03-31T15:43:24.277Z,96386.00
2023-03-31T15:45:54.355Z,96389.00
2023-03-31T15:48:28.435Z,96387.00
2023-03-31T15:51:01.422Z,96387.00
2023-03-31T15:53:32.495Z,96369.00
2023-03-31T15:56:01.710Z,96380.00
2023-03-31T15:58:55.448Z,96378.00
2023-03-31T16:01:24.571Z,96365.00
2023-03-31T16:03:57.545Z,96371.00
2023-03-31T16:06:37.941Z,96365.00
2023-03-31T16:09:08.992Z,96368.00
2023-03-31T16:11:41.715Z,96362.00
2023-03-31T16:14:15.010Z,96365.00
2023-03-31T16:16:48.375Z,96365.00
2023-03-31T16:19:18.780Z,96368.00
2023-03-31T16:21:50.165Z,96368.00
2023-03-31T16:24:18.140Z,96357.00
2023-03-31T16:26:46.081Z,96370.00
2023-03-31T16:29:21.847Z,96373.00
2023-03-31T16:31:49.694Z,96377.00
2023-03-31T16:34:18.790Z,96376.00
2023-03-31T16:36:47.494Z,96378.00
2023-03-31T16:39:15.313Z,96376.00
2023-03-31T16:41:42.971Z,96383.00
2023-03-31T16:44:10.959Z,96380.00
2023-03-31T16:46:38.802Z,96376.00
2023-03-31T16:49:06.550Z,96389.00
2023-03-31T16:51:38.036Z,96385.00
2023-03-31T16:54:06.213Z,96377.00
2023-03-31T16:56:33.823Z,96399.00
2023-03-31T16:59:01.721Z,96391.00
2023-03-31T17:01:29.428Z,96389.00
2023-03-31T17:03:57.168Z,96391.00
2023-03-31T17:06:24.781Z,96395.00
2023-03-31T17:08:53.800Z,96395.00
2023-03-31T17:11:22.790Z,96390.00
2023-03-31T17:13:51.081Z,96385.00
2023-03-31T17:16:24.463Z,96389.00
2023-03-31T17:19:06.559Z,96397.00
2023-03-31T17:21:34.157Z,96395.00
2023-03-31T17:24:03.428Z,96397.00
2023-03-31T17:26:31.036Z,96392.00
2023-03-31T17:29:00.519Z,96394.00
2023-03-31T17:31:28.278Z,96395.00
2023-03-31T17:33:55.931Z,96398.00
2023-03-31T17:36:23.606Z,96392.00
2023-03-31T17:38:51.659Z,96392.00
2023-03-31T17:41:21.255Z,96401.00
2023-03-31T17:43:50.210Z,96401.00
2023-03-31T17:46:18.954Z,96411.00
2023-03-31T17:48:46.792Z,96405.00
2023-03-31T17:51:16.323Z,96407.00
2023-03-31T17:53:44.983Z,96408.00
2023-03-31T17:56:13.940Z,96407.00
2023-03-31T17:58:46.682Z,96412.00
2023-03-31T18:01:14.626Z,96412.00
2023-03-31T18:03:42.637Z,96424.00
2023-03-31T18:06:12.553Z,96430.00
2023-03-31T18:08:41.874Z,96439.00
2023-03-31T18:11:10.681Z,96426.00
2023-03-31T18:13:38.808Z,96426.00
2023-03-31T18:16:09.872Z,96425.00
2023-03-31T18:18:39.351Z,96418.00
2023-03-31T18:21:09.105Z,96427.00
2023-03-31T18:23:37.513Z,96435.00
2023-03-31T18:26:07.262Z,96436.00
2023-03-31T18:28:34.884Z,96443.00
2023-03-31T18:31:04.461Z,96437.00
2023-03-31T18:33:33.547Z,96444.00
2023-03-31T18:36:01.803Z,96450.00
2023-03-31T18:38:29.565Z,96447.00
2023-03-31T18:40:58.121Z,96454.00
2023-03-31T18:43:26.555Z,96454.00
2023-03-31T18:45:56.490Z,96451.00
2023-03-31T18:48:25.154Z,96458.00
2023-03-31T18:50:55.006Z,96453.00
2023-03-31T18:53:24.226Z,96455.00
2023-03-31T18:55:53.180Z,96463.00
2023-03-31T18:58:21.692Z,96463.00
2023-03-31T19:00:49.358Z,96469.00
2023-03-31T19:03:17.496Z,96471.00
2023-03-31T19:05:45.422Z,96471.00
2023-03-31T19:08:14.407Z,96471.00
2023-03-31T19:10:42.135Z,96474.00
2023-03-31T19:13:09.990Z,96471.00
2023-03-31T19:15:38.034Z,96475.00
2023-03-31T19:18:06.195Z,96476.00
2023-03-31T19:20:33.921Z,96466.00
2023-03-31T19:23:01.659Z,96468.00
2023-03-31T19:25:30.863Z,96486.00
2023-03-31T19:27:58.704Z,96484.00
2023-03-31T19:30:26.517Z,96498.00
2023-03-31T19:32:54.693Z,96491.00
2023-03-31T19:35:23.421Z,96488.00
2023-03-31T19:37:52.359Z,96496.00
2023-03-31T19:40:20.325Z,96495.00
2023-03-31T19:42:49.326Z,96489.00
2023-03-31T19:45:17.102Z,96490.00
2023-03-31T19:47:44.857Z,96483.00
2023-03-31T19:50:13.469Z,96489.00
2023-03-31T19:52:41.459Z,96484.00
2023-03-31T19:55:09.182Z,96477.00
2023-03-31T19:57:37.197Z,96489.00
2023-03-31T20:00:08.010Z,96474.00
2023-03-31T20:02:36.171Z,96478.00
2023-03-31T20:05:04.016Z,96477.00
2023-03-31T20:07:31.644Z,96478.00
2023-03-31T20:09:59.343Z,96493.00
2023-03-31T20:12:26.989Z,96487.00
2023-03-31T20:14:54.595Z,96518.00
2023-03-31T20:17:23.598Z,96515.00
2023-03-31T20:19:51.195Z,96506.00
2023-03-31T20:22:19.410Z,96511.00
2023-03-31T20:24:47.185Z,96520.00
2023-03-31T20:27:14.824Z,96527.00
2023-03-31T20:29:42.706Z,96527.00
2023-03-31T20:32:10.454Z,96531.00
2023-03-31T20:34:39.419Z,96522.00
2023-03-31T20:37:07.755Z,96527.00
2023-03-31T20:39:35.885Z,96515.00
2023-03-31T20:42:03.554Z,96496.00
2023-03-31T20:44:32.409Z,96498.00
2023-03-31T20:47:00.520Z,96494.00
2023-03-31T20:49:28.265Z,96477.00
2023-03-31T20:51:58.909Z,96492.00
2023-03-31T20:54:27.284Z,96479.00
2023-03-31T20:56:55.364Z,96485.00
2023-03-31T20:59:23.696Z,96479.00
2023-03-31T21:01:51.652Z,96484.00
2023-03-31T21:04:19.400Z,96488.00
2023-03-31T21:06:48.563Z,96493.00
2023-03-31T21:09:17.841Z,96486.00
2023-03-31T21:11:45.831Z,96493.00
2023-03-31T21:14:15.074Z,96496.00
2023-03-31T21:16:43.074Z,96506.00
2023-03-31T21:19:11.121Z,96511.00
2023-03-31T21:21:41.066Z,96503.00
2023-03-31T21:24:09.758Z,96504.00
2023-03-31T21:26:38.760Z,96505.00
2023-03-31T21:29:06.770Z,96508.00
2023-03-31T21:31:34.509Z,96508.00
2023-03-31T21:34:02.727Z,96515.00
2023-03-31T21:36:30.745Z,96510.00
2023-03-31T21:38:58.415Z,96511.00
2023-03-31T21:41:27.988Z,96522.00
2023-03-31T21:44:00.472Z,96510.00
2023-03-31T21:46:31.846Z,96501.00
2023-03-31T21:48:59.731Z,96511.00
2023-03-31T21:51:28.497Z,96509.00
2023-03-31T21:53:56.487Z,96511.00
2023-03-31T21:56:25.342Z,96512.00
2023-03-31T21:58:53.280Z,96518.00
2023-03-31T22:01:23.575Z,96517.00
2023-03-31T22:03:51.834Z,96521.00
2023-03-31T22:06:19.797Z,96523.00
2023-03-31T22:08:47.444Z,96520.00
2023-03-31T22:11:15.942Z,96513.00
2023-03-31T22:13:43.989Z,96512.00
2023-03-31T22:16:17.252Z,96520.00
2023-03-31T22:18:47.154Z,96519.00
2023-03-31T22:21:16.978Z,96521.00
2023-03-31T22:23:44.620Z,96522.00
2023-03-31T22:26:12.285Z,96522.00
2023-03-31T22:28:39.973Z,96520.00
2023-03-31T22:31:08.018Z,96525.00
2023-03-31T22:33:35.805Z,96518.00
2023-03-31T22:36:05.145Z,96525.00
2023-03-31T22:38:32.897Z,96517.00
2023-03-31T22:41:00.563Z,96514.00
2023-03-31T22:43:28.229Z,96513.00
2023-03-31T22:45:55.872Z,96511.00
2023-03-31T22:48:23.507Z,96520.00
2023-03-31T22:50:51.237Z,96516.00
2023-03-31T22:53:22.303Z,96517.00
2023-03-31T22:55:53.937Z,96515.00
2023-03-31T22:58:22.691Z,96511.00
2023-03-31T23:00:57.148Z,96516.00
2023-03-31T23:03:25.060Z,96512.00
2023-03-31T23:05:52.717Z,96514.00
2023-03-31T23:08:21.704Z,96512.00
2023-03-31T23:10:55.642Z,96512.00
2023-03-31T23:13:23.316Z,96510.00
2023-03-31T23:15:51.382Z,96501.00
2023-03-31T23:18:19.301Z,96504.00
2023-03-31T23:20:48.734Z,96513.00
2023-03-31T23:23:16.633Z,96518.00
2023-03-31T23:25:45.593Z,96509.00
2023-03-31T23:28:13.539Z,96519.00
2023-03-31T23:30:41.430Z,96508.00
2023-03-31T23:33:09.137Z,96507.00
2023-03-31T23:35:36.853Z,96501.00
2023-03-31T23:38:04.774Z,96501.00
2023-03-31T23:40:32.417Z,96496.00
2023-03-31T23:43:01.692Z,96504.00
2023-03-31T23:45:29.322Z,96495.00
2023-03-31T23:47:56.986Z,96499.00
2023-03-31T23:50:24.694Z,96497.00
2023-03-31T23:52:52.306Z,96506.00
2023-03-31T23:55:19.992Z,96499.00
2023-03-31T23:57:47.611Z,96497.00
